createdAt,value
2019-03-31T00:00:23.074Z,1013.40
2019-03-31T00:01:22.777Z,1013.37
2019-03-31T00:02:22.764Z,1013.38
2019-03-31T00:03:22.853Z,1013.37
2019-03-31T00:04:22.753Z,1013.36
2019-03-31T00:05:22.735Z,1013.38
2019-03-31T00:06:22.788Z,1013.29
2019-03-31T00:07:22.780Z,1013.28
2019-03-31T00:08:22.810Z,1013.31
2019-03-31T00:09:22.840Z,1013.30
2019-03-31T00:10:22.681Z,1013.31
2019-03-31T00:11:22.667Z,1013.32
2019-03-31T00:12:22.662Z,1013.33
2019-03-31T00:13:22.652Z,1013.32
2019-03-31T00:14:22.671Z,1013.28
2019-03-31T00:15:22.753Z,1013.28
2019-03-31T00:16:22.620Z,1013.29
2019-03-31T00:17:22.600Z,1013.31
2019-03-31T00:18:22.596Z,1013.26
2019-03-31T00:19:22.586Z,1013.31
2019-03-31T00:20:22.578Z,1013.29
2019-03-31T00:21:23.766Z,1013.29
2019-03-31T00:22:22.762Z,1013.29
2019-03-31T00:23:22.631Z,1013.31
2019-03-31T00:24:22.533Z,1013.33
2019-03-31T00:25:22.721Z,1013.31
2019-03-31T00:26:22.713Z,1013.30
2019-03-31T00:27:22.504Z,1013.29
2019-03-31T00:28:22.506Z,1013.31
2019-03-31T00:29:22.562Z,1013.29
2019-03-31T00:30:22.472Z,1013.25
2019-03-31T00:31:22.854Z,1013.27
2019-03-31T00:32:23.428Z,1013.25
2019-03-31T00:33:23.906Z,1013.27
2019-03-31T00:34:22.427Z,1013.25
2019-03-31T00:35:22.417Z,1013.24
2019-03-31T00:36:22.396Z,1013.25
2019-03-31T00:37:22.596Z,1013.27
2019-03-31T00:38:22.481Z,1013.29
2019-03-31T00:39:22.401Z,1013.28
2019-03-31T00:40:22.703Z,1013.31
2019-03-31T00:41:22.392Z,1013.35
2019-03-31T00:42:22.562Z,1013.38
2019-03-31T00:43:22.705Z,1013.34
2019-03-31T00:44:22.417Z,1013.31
2019-03-31T00:45:22.377Z,1013.33
2019-03-31T00:46:22.373Z,1013.30
2019-03-31T00:47:22.356Z,1013.33
2019-03-31T00:48:22.352Z,1013.36
2019-03-31T00:49:22.455Z,1013.36
2019-03-31T00:50:22.253Z,1013.34
2019-03-31T00:51:22.334Z,1013.32
2019-03-31T00:52:22.226Z,1013.34
2019-03-31T00:53:23.587Z,1013.33
2019-03-31T00:54:22.378Z,1013.31
2019-03-31T00:55:22.245Z,1013.34
2019-03-31T00:56:22.183Z,1013.29
2019-03-31T00:57:22.209Z,1013.33
2019-03-31T00:58:22.160Z,1013.30
2019-03-31T00:59:22.167Z,1013.33
2019-03-31T01:00:22.370Z,1013.28
2019-03-31T01:01:35.479Z,1013.33
2019-03-31T01:02:23.153Z,1013.29
2019-03-31T01:03:22.135Z,1013.32
2019-03-31T01:04:22.143Z,1013.32
2019-03-31T01:05:22.080Z,1013.30
2019-03-31T01:06:22.221Z,1013.36
2019-03-31T01:07:22.084Z,1013.33
2019-03-31T01:08:22.058Z,1013.37
2019-03-31T01:09:22.133Z,1013.36
2019-03-31T01:10:22.028Z,1013.36
2019-03-31T01:11:22.017Z,1013.37
2019-03-31T01:12:22.423Z,1013.36
2019-03-31T01:13:21.991Z,1013.38
2019-03-31T01:14:21.991Z,1013.41
2019-03-31T01:15:22.017Z,1013.39
2019-03-31T01:16:22.293Z,1013.39
2019-03-31T01:17:22.392Z,1013.37
2019-03-31T01:18:21.951Z,1013.41
2019-03-31T01:19:21.929Z,1013.40
2019-03-31T01:20:21.933Z,1013.40
2019-03-31T01:21:21.902Z,1013.40
2019-03-31T01:22:21.897Z,1013.37
2019-03-31T01:23:22.168Z,1013.37
2019-03-31T01:24:22.176Z,1013.38
2019-03-31T01:25:21.875Z,1013.41
2019-03-31T01:26:21.850Z,1013.43
2019-03-31T01:27:21.844Z,1013.41
2019-03-31T01:28:21.826Z,1013.45
2019-03-31T01:29:22.153Z,1013.47
2019-03-31T01:30:21.827Z,1013.48
2019-03-31T01:31:21.829Z,1013.46
2019-03-31T01:32:21.947Z,1013.43
2019-03-31T01:33:21.778Z,1013.51
2019-03-31T01:34:21.767Z,1013.54
2019-03-31T01:35:21.753Z,1013.52
2019-03-31T01:36:21.747Z,1013.48
2019-03-31T01:37:21.768Z,1013.53
2019-03-31T01:38:21.863Z,1013.57
2019-03-31T01:39:21.710Z,1013.50
2019-03-31T01:40:21.708Z,1013.55
2019-03-31T01:41:21.811Z,1013.54
2019-03-31T01:42:21.683Z,1013.50
2019-03-31T01:43:21.658Z,1013.53
2019-03-31T01:44:21.651Z,1013.53
2019-03-31T01:45:21.654Z,1013.53
2019-03-31T01:46:21.768Z,1013.54
2019-03-31T01:47:21.784Z,1013.51
2019-03-31T01:48:21.679Z,1013.52
2019-03-31T01:49:21.679Z,1013.56
2019-03-31T01:50:22.998Z,1013.57
2019-03-31T01:51:21.578Z,1013.55
2019-03-31T01:52:21.748Z,1013.57
2019-03-31T01:53:21.578Z,1013.57
2019-03-31T01:54:21.555Z,1013.58
2019-03-31T01:55:21.537Z,1013.56
2019-03-31T01:56:21.640Z,1013.60
2019-03-31T01:57:21.813Z,1013.58
2019-03-31T01:58:21.507Z,1013.59
2019-03-31T01:59:21.514Z,1013.59
2019-03-31T02:00:21.483Z,1013.59
2019-03-31T02:01:21.505Z,1013.59
2019-03-31T02:02:21.454Z,1013.60
2019-03-31T02:03:21.826Z,1013.58
2019-03-31T02:04:21.442Z,1013.60
2019-03-31T02:05:21.455Z,1013.57
2019-03-31T02:06:21.755Z,1013.58
2019-03-31T02:07:21.395Z,1013.62
2019-03-31T02:08:21.644Z,1013.65
2019-03-31T02:09:29.168Z,1013.64
2019-03-31T02:10:21.382Z,1013.63
2019-03-31T02:11:21.356Z,1013.61
2019-03-31T02:12:21.345Z,1013.61
2019-03-31T02:13:21.339Z,1013.63
2019-03-31T02:14:21.507Z,1013.63
2019-03-31T02:15:21.315Z,1013.66
2019-03-31T02:16:21.340Z,1013.63
2019-03-31T02:17:21.299Z,1013.66
2019-03-31T02:18:21.354Z,1013.66
2019-03-31T02:19:21.270Z,1013.68
2019-03-31T02:20:21.451Z,1013.68
2019-03-31T02:21:21.251Z,1013.73
2019-03-31T02:22:21.243Z,1013.72
2019-03-31T02:23:21.430Z,1013.76
2019-03-31T02:24:21.814Z,1013.71
2019-03-31T02:25:21.221Z,1013.68
2019-03-31T02:26:21.291Z,1013.71
2019-03-31T02:27:21.195Z,1013.74
2019-03-31T02:28:21.175Z,1013.70
2019-03-31T02:29:21.184Z,1013.71
2019-03-31T02:30:21.523Z,1013.70
2019-03-31T02:31:21.244Z,1013.70
2019-03-31T02:32:24.094Z,1013.67
2019-03-31T02:33:21.125Z,1013.71
2019-03-31T02:34:21.111Z,1013.68
2019-03-31T02:35:21.162Z,1013.71
2019-03-31T02:36:21.077Z,1013.65
2019-03-31T02:37:21.312Z,1013.65
2019-03-31T02:38:21.064Z,1013.68
2019-03-31T02:39:21.292Z,1013.61
2019-03-31T02:40:21.042Z,1013.68
2019-03-31T02:41:21.084Z,1013.68
2019-03-31T02:42:21.304Z,1013.66
2019-03-31T02:43:21.275Z,1013.65
2019-03-31T02:44:21.002Z,1013.67
2019-03-31T02:45:20.988Z,1013.62
2019-03-31T02:46:21.201Z,1013.63
2019-03-31T02:47:20.961Z,1013.63
2019-03-31T02:48:21.170Z,1013.62
2019-03-31T02:49:21.021Z,1013.62
2019-03-31T02:50:21.149Z,1013.62
2019-03-31T02:51:22.225Z,1013.62
2019-03-31T02:52:20.946Z,1013.60
2019-03-31T02:53:20.889Z,1013.66
2019-03-31T02:54:21.262Z,1013.64
2019-03-31T02:55:20.879Z,1013.61
2019-03-31T02:56:20.866Z,1013.65
2019-03-31T02:57:20.854Z,1013.70
2019-03-31T02:58:20.844Z,1013.70
2019-03-31T02:59:21.030Z,1013.70
2019-03-31T03:00:20.924Z,1013.72
2019-03-31T03:01:20.825Z,1013.77
2019-03-31T03:02:20.831Z,1013.78
2019-03-31T03:03:20.790Z,1013.77
2019-03-31T03:04:20.887Z,1013.76
2019-03-31T03:05:21.934Z,1013.81
2019-03-31T03:06:20.762Z,1013.83
2019-03-31T03:07:20.777Z,1013.84
2019-03-31T03:08:20.731Z,1013.88
2019-03-31T03:09:21.202Z,1013.87
2019-03-31T03:10:21.028Z,1013.93
2019-03-31T03:11:20.742Z,1013.93
2019-03-31T03:12:20.682Z,1013.92
2019-03-31T03:13:20.673Z,1013.92
2019-03-31T03:14:20.814Z,1013.94
2019-03-31T03:15:20.770Z,1013.95
2019-03-31T03:16:20.639Z,1013.88
2019-03-31T03:17:20.629Z,1013.95
2019-03-31T03:18:20.617Z,1013.93
2019-03-31T03:19:20.797Z,1013.91
2019-03-31T03:20:20.608Z,1013.95
2019-03-31T03:21:24.072Z,1013.95
2019-03-31T03:22:20.687Z,1013.98
2019-03-31T03:23:20.702Z,1014.04
2019-03-31T03:24:20.732Z,1014.03
2019-03-31T03:25:20.749Z,1014.02
2019-03-31T03:26:20.533Z,1014.08
2019-03-31T03:27:20.644Z,1014.07
2019-03-31T03:28:20.555Z,1014.04
2019-03-31T03:29:20.503Z,1014.03
2019-03-31T03:30:20.589Z,1014.00
2019-03-31T03:31:20.812Z,1014.04
2019-03-31T03:32:20.471Z,1014.06
2019-03-31T03:33:20.653Z,1014.08
2019-03-31T03:34:20.443Z,1014.06
2019-03-31T03:35:20.437Z,1014.09
2019-03-31T03:36:20.447Z,1014.05
2019-03-31T03:37:20.712Z,1014.08
2019-03-31T03:38:20.405Z,1014.08
2019-03-31T03:39:20.448Z,1014.07
2019-03-31T03:40:20.436Z,1014.10
2019-03-31T03:41:20.456Z,1014.06
2019-03-31T03:42:20.819Z,1014.11
2019-03-31T03:43:20.854Z,1014.10
2019-03-31T03:44:20.426Z,1014.13
2019-03-31T03:45:20.620Z,1014.11
2019-03-31T03:46:20.392Z,1014.10
2019-03-31T03:47:20.411Z,1014.10
2019-03-31T03:48:20.509Z,1014.10
2019-03-31T03:49:20.282Z,1014.14
2019-03-31T03:50:20.278Z,1014.14
2019-03-31T03:51:20.342Z,1014.21
2019-03-31T03:52:20.268Z,1014.19
2019-03-31T03:53:20.233Z,1014.25
2019-03-31T03:54:20.475Z,1014.21
2019-03-31T03:55:20.227Z,1014.20
2019-03-31T03:56:20.203Z,1014.22
2019-03-31T03:57:20.201Z,1014.20
2019-03-31T03:58:20.289Z,1014.25
2019-03-31T03:59:20.423Z,1014.25
2019-03-31T04:00:20.165Z,1014.27
2019-03-31T04:01:20.150Z,1014.25
2019-03-31T04:02:20.159Z,1014.26
2019-03-31T04:03:30.155Z,1014.24
2019-03-31T04:04:21.302Z,1014.26
2019-03-31T04:05:20.103Z,1014.32
2019-03-31T04:06:20.088Z,1014.31
2019-03-31T04:07:20.512Z,1014.35
2019-03-31T04:08:20.141Z,1014.37
2019-03-31T04:09:20.069Z,1014.33
2019-03-31T04:10:20.162Z,1014.35
2019-03-31T04:11:21.505Z,1014.34
2019-03-31T04:12:20.337Z,1014.31
2019-03-31T04:13:20.037Z,1014.29
2019-03-31T04:14:20.043Z,1014.31
2019-03-31T04:15:20.038Z,1014.31
2019-03-31T04:16:20.139Z,1014.38
2019-03-31T04:17:20.371Z,1014.38
2019-03-31T04:18:20.000Z,1014.36
2019-03-31T04:19:19.948Z,1014.40
2019-03-31T04:20:19.949Z,1014.38
2019-03-31T04:21:19.940Z,1014.37
2019-03-31T04:22:19.948Z,1014.38
2019-03-31T04:23:20.042Z,1014.45
2019-03-31T04:24:19.903Z,1014.47
2019-03-31T04:25:19.894Z,1014.47
2019-03-31T04:26:20.016Z,1014.48
2019-03-31T04:27:19.883Z,1014.48
2019-03-31T04:28:21.812Z,1014.52
2019-03-31T04:29:19.884Z,1014.49
2019-03-31T04:30:19.853Z,1014.50
2019-03-31T04:31:19.840Z,1014.46
2019-03-31T04:32:19.846Z,1014.48
2019-03-31T04:33:19.941Z,1014.52
2019-03-31T04:34:20.183Z,1014.50
2019-03-31T04:35:19.773Z,1014.51
2019-03-31T04:36:19.758Z,1014.56
2019-03-31T04:37:19.754Z,1014.55
2019-03-31T04:38:19.753Z,1014.57
2019-03-31T04:39:20.013Z,1014.60
2019-03-31T04:40:19.719Z,1014.60
2019-03-31T04:41:19.709Z,1014.62
2019-03-31T04:42:19.693Z,1014.62
2019-03-31T04:43:19.698Z,1014.66
2019-03-31T04:44:19.673Z,1014.64
2019-03-31T04:45:19.775Z,1014.63
2019-03-31T04:46:19.654Z,1014.66
2019-03-31T04:47:19.710Z,1014.69
2019-03-31T04:48:19.623Z,1014.65
2019-03-31T04:49:19.619Z,1014.75
2019-03-31T04:50:19.727Z,1014.73
2019-03-31T04:51:19.593Z,1014.73
2019-03-31T04:52:19.585Z,1014.75
2019-03-31T04:53:19.584Z,1014.79
2019-03-31T04:54:19.557Z,1014.81
2019-03-31T04:55:19.551Z,1014.79
2019-03-31T04:56:19.856Z,1014.82
2019-03-31T04:57:19.649Z,1014.84
2019-03-31T04:58:19.516Z,1014.84
2019-03-31T04:59:19.506Z,1014.85
2019-03-31T05:00:19.499Z,1014.90
2019-03-31T05:01:19.825Z,1014.98
2019-03-31T05:02:19.483Z,1014.87
2019-03-31T05:03:19.814Z,1015.01
2019-03-31T05:04:19.517Z,1015.00
2019-03-31T05:05:19.462Z,1015.01
2019-03-31T05:06:19.432Z,1015.03
2019-03-31T05:07:19.547Z,1015.01
2019-03-31T05:08:19.734Z,1015.07
2019-03-31T05:09:19.397Z,1015.06
2019-03-31T05:10:19.379Z,1015.09
2019-03-31T05:11:19.375Z,1015.08
2019-03-31T05:12:19.373Z,1015.07
2019-03-31T05:13:19.381Z,1015.13
2019-03-31T05:14:19.473Z,1015.18
2019-03-31T05:15:19.325Z,1015.21
2019-03-31T05:16:19.314Z,1015.25
2019-03-31T05:17:26.410Z,1015.25
2019-03-31T05:18:19.294Z,1015.29
2019-03-31T05:19:19.280Z,1015.32
2019-03-31T05:20:19.419Z,1015.25
2019-03-31T05:21:19.455Z,1015.32
2019-03-31T05:22:19.250Z,1015.32
2019-03-31T05:23:19.292Z,1015.39
2019-03-31T05:24:19.244Z,1015.37
2019-03-31T05:25:19.218Z,1015.36
2019-03-31T05:26:19.330Z,1015.42
2019-03-31T05:27:19.197Z,1015.41
2019-03-31T05:28:19.200Z,1015.43
2019-03-31T05:29:19.191Z,1015.50
2019-03-31T05:30:19.362Z,1015.53
2019-03-31T05:31:19.160Z,1015.58
2019-03-31T05:32:19.138Z,1015.62
2019-03-31T05:33:19.135Z,1015.65
2019-03-31T05:34:19.627Z,1015.68
2019-03-31T05:35:19.148Z,1015.73
2019-03-31T05:36:19.245Z,1015.71
2019-03-31T05:37:19.096Z,1015.76
2019-03-31T05:38:19.072Z,1015.81
2019-03-31T05:39:19.069Z,1015.82
2019-03-31T05:40:19.069Z,1015.87
2019-03-31T05:41:19.042Z,1015.87
2019-03-31T05:42:19.470Z,1015.91
2019-03-31T05:43:19.012Z,1015.88
2019-03-31T05:44:19.698Z,1015.92
2019-03-31T05:45:19.265Z,1015.93
2019-03-31T05:46:18.994Z,1015.98
2019-03-31T05:47:19.299Z,1016.02
2019-03-31T05:48:18.957Z,1016.01
2019-03-31T05:49:18.958Z,1015.93
2019-03-31T05:50:18.943Z,1016.07
2019-03-31T05:51:18.938Z,1016.02
2019-03-31T05:52:19.039Z,1016.00
2019-03-31T05:53:18.971Z,1016.07
2019-03-31T05:54:19.025Z,1016.04
2019-03-31T05:55:19.104Z,1016.10
2019-03-31T05:56:18.892Z,1016.12
2019-03-31T05:57:18.864Z,1016.12
2019-03-31T05:58:18.981Z,1016.16
2019-03-31T05:59:18.847Z,1016.24
2019-03-31T06:00:18.844Z,1016.16
2019-03-31T06:01:18.826Z,1016.16
2019-03-31T06:02:19.005Z,1016.19
2019-03-31T06:03:18.921Z,1016.24
2019-03-31T06:04:32.310Z,1016.26
2019-03-31T06:05:19.950Z,1016.29
2019-03-31T06:06:18.770Z,1016.27
2019-03-31T06:07:18.756Z,1016.30
2019-03-31T06:08:18.898Z,1016.30
2019-03-31T06:09:18.999Z,1016.30
2019-03-31T06:10:31.121Z,1016.33
2019-03-31T06:11:18.706Z,1016.37
2019-03-31T06:12:18.719Z,1016.34
2019-03-31T06:13:18.713Z,1016.34
2019-03-31T06:14:19.005Z,1016.33
2019-03-31T06:15:18.827Z,1016.39
2019-03-31T06:16:18.663Z,1016.36
2019-03-31T06:17:18.647Z,1016.38
2019-03-31T06:18:18.631Z,1016.37
2019-03-31T06:19:18.636Z,1016.38
2019-03-31T06:20:18.617Z,1016.38
2019-03-31T06:21:18.780Z,1016.40
2019-03-31T06:22:18.586Z,1016.38
2019-03-31T06:23:18.629Z,1016.34
2019-03-31T06:24:18.573Z,1016.34
2019-03-31T06:25:18.685Z,1016.33
2019-03-31T06:26:22.066Z,1016.33
2019-03-31T06:27:19.619Z,1016.36
2019-03-31T06:28:18.855Z,1016.41
2019-03-31T06:29:18.569Z,1016.42
2019-03-31T06:30:20.023Z,1016.39
2019-03-31T06:31:19.978Z,1016.45
2019-03-31T06:32:18.594Z,1016.51
2019-03-31T06:33:18.485Z,1016.53
2019-03-31T06:34:19.041Z,1016.59
2019-03-31T06:35:18.454Z,1016.58
2019-03-31T06:36:18.458Z,1016.54
2019-03-31T06:37:18.988Z,1016.54
2019-03-31T06:38:18.466Z,1016.58
2019-03-31T06:39:18.466Z,1016.56
2019-03-31T06:40:18.603Z,1016.63
2019-03-31T06:41:18.762Z,1016.55
2019-03-31T06:42:18.974Z,1016.61
2019-03-31T06:43:18.391Z,1016.59
2019-03-31T06:44:18.519Z,1016.64
2019-03-31T06:45:18.419Z,1016.60
2019-03-31T06:46:28.155Z,1016.62
2019-03-31T06:47:18.411Z,1016.63
2019-03-31T06:48:20.824Z,1016.66
2019-03-31T06:49:19.967Z,1016.62
2019-03-31T06:50:18.294Z,1016.59
2019-03-31T06:51:18.565Z,1016.65
2019-03-31T06:52:18.261Z,1016.64
2019-03-31T06:53:18.252Z,1016.63
2019-03-31T06:54:23.310Z,1016.65
2019-03-31T06:55:18.251Z,1016.68
2019-03-31T06:56:19.130Z,1016.74
2019-03-31T06:57:18.498Z,1016.66
2019-03-31T06:58:18.198Z,1016.70
2019-03-31T06:59:18.449Z,1016.69
2019-03-31T07:00:18.635Z,1016.68
2019-03-31T07:01:18.216Z,1016.71
2019-03-31T07:02:18.156Z,1016.71
2019-03-31T07:03:18.580Z,1016.61
2019-03-31T07:04:18.283Z,1016.66
2019-03-31T07:05:18.136Z,1016.63
2019-03-31T07:06:18.166Z,1016.69
2019-03-31T07:07:18.100Z,1016.69
2019-03-31T07:08:18.087Z,1016.76
2019-03-31T07:09:18.075Z,1016.73
2019-03-31T07:10:18.060Z,1016.78
2019-03-31T07:11:18.232Z,1016.66
2019-03-31T07:12:18.057Z,1016.72
2019-03-31T07:13:18.111Z,1016.65
2019-03-31T07:14:18.011Z,1016.86
2019-03-31T07:15:18.010Z,1016.67
2019-03-31T07:16:18.065Z,1016.87
2019-03-31T07:17:21.612Z,1016.74
2019-03-31T07:18:17.990Z,1016.95
2019-03-31T07:19:17.970Z,1016.97
2019-03-31T07:20:18.071Z,1017.02
2019-03-31T07:21:18.961Z,1016.99
2019-03-31T07:22:17.941Z,1016.80
2019-03-31T07:23:18.051Z,1017.01
2019-03-31T07:24:17.927Z,1017.03
2019-03-31T07:25:17.903Z,1017.01
2019-03-31T07:26:17.881Z,1017.03
2019-03-31T07:27:17.879Z,1017.07
2019-03-31T07:28:17.893Z,1017.10
2019-03-31T07:29:17.979Z,1016.95
2019-03-31T07:30:17.841Z,1017.03
2019-03-31T07:31:17.833Z,1016.93
2019-03-31T07:32:17.836Z,1016.97
2019-03-31T07:33:18.021Z,1017.21
2019-03-31T07:34:17.839Z,1017.06
2019-03-31T07:35:18.999Z,1016.99
2019-03-31T07:36:17.769Z,1017.02
2019-03-31T07:37:17.775Z,1017.11
2019-03-31T07:38:17.925Z,1017.01
2019-03-31T07:39:18.183Z,1017.02
2019-03-31T07:40:17.920Z,1017.07
2019-03-31T07:41:17.736Z,1017.10
2019-03-31T07:42:18.721Z,1017.12
2019-03-31T07:43:17.838Z,1017.11
2019-03-31T07:44:17.829Z,1017.10
2019-03-31T07:45:17.692Z,1017.15
2019-03-31T07:46:17.794Z,1017.17
2019-03-31T07:47:17.670Z,1017.23
2019-03-31T07:48:19.275Z,1017.25
2019-03-31T07:49:17.635Z,1017.23
2019-03-31T07:50:17.914Z,1017.26
2019-03-31T07:51:17.810Z,1017.27
2019-03-31T07:52:17.619Z,1017.33
2019-03-31T07:53:18.519Z,1017.38
2019-03-31T07:54:17.577Z,1017.36
2019-03-31T07:55:17.572Z,1017.31
2019-03-31T07:56:17.552Z,1017.40
2019-03-31T07:57:17.849Z,1017.41
2019-03-31T07:58:17.533Z,1017.40
2019-03-31T07:59:17.553Z,1017.40
2019-03-31T08:00:17.532Z,1017.41
2019-03-31T08:01:17.779Z,1017.43
2019-03-31T08:02:17.837Z,1017.43
2019-03-31T08:03:17.791Z,1017.42
2019-03-31T08:04:17.528Z,1017.38
2019-03-31T08:05:17.516Z,1017.34
2019-03-31T08:06:17.458Z,1017.44
2019-03-31T08:07:17.598Z,1017.54
2019-03-31T08:08:17.850Z,1017.47
2019-03-31T08:09:17.431Z,1017.48
2019-03-31T08:10:17.624Z,1017.51
2019-03-31T08:11:17.636Z,1017.57
2019-03-31T08:12:17.558Z,1017.58
2019-03-31T08:13:17.483Z,1017.59
2019-03-31T08:14:18.016Z,1017.62
2019-03-31T08:15:17.391Z,1017.58
2019-03-31T08:16:17.332Z,1017.64
2019-03-31T08:17:17.411Z,1017.62
2019-03-31T08:18:17.515Z,1017.70
2019-03-31T08:19:20.731Z,1017.70
2019-03-31T08:20:17.512Z,1017.70
2019-03-31T08:21:17.633Z,1017.69
2019-03-31T08:22:17.524Z,1017.77
2019-03-31T08:23:19.626Z,1017.79
2019-03-31T08:24:17.497Z,1017.81
2019-03-31T08:25:17.243Z,1017.82
2019-03-31T08:26:17.228Z,1017.79
2019-03-31T08:27:17.206Z,1017.84
2019-03-31T08:28:17.226Z,1017.88
2019-03-31T08:29:18.012Z,1017.84
2019-03-31T08:30:17.349Z,1017.86
2019-03-31T08:31:20.464Z,1017.84
2019-03-31T08:32:17.352Z,1017.88
2019-03-31T08:33:17.152Z,1017.87
2019-03-31T08:34:17.232Z,1017.82
2019-03-31T08:35:17.498Z,1017.82
2019-03-31T08:36:17.544Z,1017.85
2019-03-31T08:37:20.532Z,1017.88
2019-03-31T08:38:17.394Z,1018.28
2019-03-31T08:39:17.199Z,1018.17
2019-03-31T08:40:31.644Z,1018.15
2019-03-31T08:41:17.103Z,1018.21
2019-03-31T08:42:17.036Z,1017.95
2019-03-31T08:43:17.039Z,1017.84
2019-03-31T08:44:17.360Z,1017.86
2019-03-31T08:45:17.017Z,1017.80
2019-03-31T08:46:17.014Z,1017.77
2019-03-31T08:47:17.486Z,1017.75
2019-03-31T08:48:17.025Z,1017.77
2019-03-31T08:49:17.536Z,1017.82
2019-03-31T08:50:16.985Z,1017.81
2019-03-31T08:51:17.702Z,1017.84
2019-03-31T08:52:16.937Z,1017.87
2019-03-31T08:53:16.986Z,1017.92
2019-03-31T08:54:16.999Z,1017.97
2019-03-31T08:55:16.896Z,1017.90
2019-03-31T08:56:17.249Z,1017.95
2019-03-31T08:57:16.915Z,1018.00
2019-03-31T08:58:17.819Z,1018.01
2019-03-31T08:59:16.867Z,1018.04
2019-03-31T09:00:16.847Z,1018.03
2019-03-31T09:01:17.091Z,1018.02
2019-03-31T09:02:16.820Z,1018.03
2019-03-31T09:03:16.823Z,1018.05
2019-03-31T09:04:16.797Z,1018.00
2019-03-31T09:05:16.790Z,1018.06
2019-03-31T09:06:16.788Z,1018.07
2019-03-31T09:07:16.893Z,1018.11
2019-03-31T09:08:16.748Z,1018.13
2019-03-31T09:09:18.468Z,1018.08
2019-03-31T09:10:16.734Z,1018.12
2019-03-31T09:11:17.030Z,1018.07
2019-03-31T09:12:16.989Z,1018.10
2019-03-31T09:13:16.696Z,1018.11
2019-03-31T09:14:16.685Z,1018.08
2019-03-31T09:15:16.672Z,1018.13
2019-03-31T09:16:16.668Z,1018.09
2019-03-31T09:17:16.785Z,1018.09
2019-03-31T09:18:16.657Z,1018.07
2019-03-31T09:19:19.845Z,1018.10
2019-03-31T09:20:16.624Z,1018.07
2019-03-31T09:21:16.618Z,1018.14
2019-03-31T09:22:16.615Z,1018.08
2019-03-31T09:23:16.600Z,1018.16
2019-03-31T09:24:16.632Z,1018.16
2019-03-31T09:25:16.886Z,1018.14
2019-03-31T09:26:16.786Z,1018.23
2019-03-31T09:27:16.550Z,1018.19
2019-03-31T09:28:21.303Z,1018.20
2019-03-31T09:29:18.891Z,1018.16
2019-03-31T09:30:16.912Z,1018.16
2019-03-31T09:31:16.874Z,1018.25
2019-03-31T09:32:16.732Z,1018.28
2019-03-31T09:33:16.486Z,1018.28
2019-03-31T09:34:16.471Z,1018.27
2019-03-31T09:35:16.524Z,1018.33
2019-03-31T09:36:16.974Z,1018.31
2019-03-31T09:37:16.814Z,1018.31
2019-03-31T09:38:16.502Z,1018.34
2019-03-31T09:39:16.789Z,1018.33
2019-03-31T09:40:16.474Z,1018.36
2019-03-31T09:41:16.453Z,1018.31
2019-03-31T09:42:16.467Z,1018.36
2019-03-31T09:43:17.037Z,1018.35
2019-03-31T09:44:16.442Z,1018.40
2019-03-31T09:45:16.617Z,1018.38
2019-03-31T09:46:18.204Z,1018.41
2019-03-31T09:47:16.367Z,1018.39
2019-03-31T09:48:19.412Z,1018.40
2019-03-31T09:49:16.296Z,1018.39
2019-03-31T09:50:17.598Z,1018.43
2019-03-31T09:51:16.278Z,1018.41
2019-03-31T09:52:16.910Z,1018.44
2019-03-31T09:53:17.875Z,1018.44
2019-03-31T09:54:16.255Z,1018.46
2019-03-31T09:55:17.954Z,1018.48
2019-03-31T09:56:16.398Z,1018.53
2019-03-31T09:57:16.213Z,1018.49
2019-03-31T09:58:16.306Z,1018.56
2019-03-31T09:59:18.103Z,1018.51
2019-03-31T10:00:16.209Z,1018.52
2019-03-31T10:01:16.311Z,1018.57
2019-03-31T10:02:16.238Z,1018.52
2019-03-31T10:03:16.284Z,1018.50
2019-03-31T10:04:16.678Z,1018.55
2019-03-31T10:05:16.140Z,1018.55
2019-03-31T10:06:29.286Z,1018.59
2019-03-31T10:07:17.109Z,1018.61
2019-03-31T10:08:16.088Z,1018.65
2019-03-31T10:09:16.086Z,1018.63
2019-03-31T10:10:16.718Z,1018.63
2019-03-31T10:11:16.077Z,1018.58
2019-03-31T10:12:17.041Z,1018.63
2019-03-31T10:13:16.040Z,1018.66
2019-03-31T10:14:17.950Z,1018.66
2019-03-31T10:15:16.322Z,1018.60
2019-03-31T10:16:16.070Z,1018.65
2019-03-31T10:17:16.312Z,1018.64
2019-03-31T10:18:18.293Z,1018.63
2019-03-31T10:19:15.975Z,1018.64
2019-03-31T10:20:15.962Z,1018.62
2019-03-31T10:21:15.973Z,1018.71
2019-03-31T10:22:15.933Z,1018.65
2019-03-31T10:23:22.827Z,1018.64
2019-03-31T10:24:17.051Z,1018.60
2019-03-31T10:25:16.166Z,1018.68
2019-03-31T10:26:20.945Z,1018.66
2019-03-31T10:27:16.892Z,1018.60
2019-03-31T10:28:15.863Z,1018.61
2019-03-31T10:29:16.044Z,1018.53
2019-03-31T10:30:15.840Z,1018.52
2019-03-31T10:31:15.858Z,1018.55
2019-03-31T10:32:15.833Z,1018.51
2019-03-31T10:33:15.814Z,1018.57
2019-03-31T10:34:16.072Z,1018.64
2019-03-31T10:35:16.771Z,1019.02
2019-03-31T10:36:15.787Z,1018.59
2019-03-31T10:37:15.784Z,1018.53
2019-03-31T10:38:15.768Z,1018.47
2019-03-31T10:39:15.740Z,1018.54
2019-03-31T10:40:15.736Z,1018.44
2019-03-31T10:41:15.865Z,1018.52
2019-03-31T10:42:15.730Z,1018.49
2019-03-31T10:43:15.759Z,1018.52
2019-03-31T10:44:15.686Z,1018.52
2019-03-31T10:45:15.739Z,1018.53
2019-03-31T10:46:15.672Z,1018.53
2019-03-31T10:47:15.673Z,1018.60
2019-03-31T10:48:20.793Z,1018.61
2019-03-31T10:49:16.641Z,1018.58
2019-03-31T10:50:15.616Z,1018.60
2019-03-31T10:51:15.671Z,1018.62
2019-03-31T10:52:15.596Z,1018.56
2019-03-31T10:53:16.027Z,1018.59
2019-03-31T10:54:15.586Z,1018.63
2019-03-31T10:55:15.595Z,1018.61
2019-03-31T10:56:15.565Z,1018.64
2019-03-31T10:57:15.559Z,1018.67
2019-03-31T10:58:16.259Z,1018.67
2019-03-31T10:59:15.523Z,1018.67
2019-03-31T11:00:15.508Z,1018.66
2019-03-31T11:01:15.496Z,1018.71
2019-03-31T11:02:15.863Z,1018.74
2019-03-31T11:03:15.474Z,1018.94
2019-03-31T11:04:15.630Z,1018.98
2019-03-31T11:05:15.474Z,1018.87
2019-03-31T11:06:15.503Z,1019.16
2019-03-31T11:07:15.432Z,1019.13
2019-03-31T11:08:15.424Z,1019.07
2019-03-31T11:09:15.601Z,1019.05
2019-03-31T11:10:15.824Z,1019.16
2019-03-31T11:11:15.399Z,1019.16
2019-03-31T11:12:15.382Z,1019.15
2019-03-31T11:13:15.366Z,1019.20
2019-03-31T11:14:15.528Z,1019.16
2019-03-31T11:15:15.490Z,1019.13
2019-03-31T11:16:15.343Z,1019.12
2019-03-31T11:17:15.326Z,1019.00
2019-03-31T11:18:15.330Z,1019.20
2019-03-31T11:19:15.313Z,1019.15
2019-03-31T11:20:15.464Z,1019.22
2019-03-31T11:21:15.296Z,1019.16
2019-03-31T11:22:15.292Z,1019.24
2019-03-31T11:23:15.385Z,1019.30
2019-03-31T11:24:15.260Z,1019.26
2019-03-31T11:25:21.236Z,1018.68
2019-03-31T11:26:16.642Z,1018.69
2019-03-31T11:27:15.228Z,1019.32
2019-03-31T11:28:15.213Z,1018.53
2019-03-31T11:29:15.202Z,1018.57
2019-03-31T11:30:16.221Z,1018.61
2019-03-31T11:31:17.847Z,1018.55
2019-03-31T11:32:15.473Z,1018.46
2019-03-31T11:33:15.179Z,1018.52
2019-03-31T11:34:15.150Z,1018.36
2019-03-31T11:35:15.148Z,1018.44
2019-03-31T11:36:15.132Z,1018.47
2019-03-31T11:37:15.136Z,1018.45
2019-03-31T11:38:15.494Z,1018.50
2019-03-31T11:39:16.492Z,1018.58
2019-03-31T11:40:15.227Z,1018.55
2019-03-31T11:41:15.432Z,1018.59
2019-03-31T11:42:15.076Z,1018.58
2019-03-31T11:43:15.396Z,1018.57
2019-03-31T11:44:15.034Z,1018.57
2019-03-31T11:45:15.024Z,1018.58
2019-03-31T11:46:15.206Z,1018.53
2019-03-31T11:47:15.016Z,1018.68
2019-03-31T11:48:15.287Z,1018.68
2019-03-31T11:49:15.107Z,1018.66
2019-03-31T11:50:14.977Z,1018.70
2019-03-31T11:51:16.597Z,1018.67
2019-03-31T11:52:14.968Z,1018.68
2019-03-31T11:53:14.940Z,1018.70
2019-03-31T11:54:14.942Z,1018.68
2019-03-31T11:55:15.100Z,1018.72
2019-03-31T11:56:14.916Z,1018.78
2019-03-31T11:57:17.471Z,1018.68
2019-03-31T11:58:14.899Z,1018.70
2019-03-31T11:59:14.904Z,1018.69
2019-03-31T12:00:14.866Z,1019.30
2019-03-31T12:01:15.188Z,1019.31
2019-03-31T12:02:26.317Z,1018.96
2019-03-31T12:03:15.826Z,1018.61
2019-03-31T12:04:14.838Z,1018.58
2019-03-31T12:05:14.812Z,1018.80